Pleasanton, TX (78064)

6:31 PM CDT on July 31, 2015 (GMT -0500)
Pleasanton | | Change Station
CLOSE
Current Station
Personal Weather Station
Location: Pleasanton, TX
Elevation: 413 ft
Nearby Weather Stations

Elev 413 ft 28.97 °N, 98.49 °W | Updated 13 seconds ago

Scattered Clouds
Scattered Clouds
92.3 °F
Feels Like 105 °F
N
8.7
Wind Variable Wind from ESE
Gusts 12.3 mph

Today
High -- | Low -- °F
--% Chance of Precip.
Yesterday
High -- | Low -- °F
Precip. -- in
6:54 AM 8:26 PM
Full, 100% visible
Pressure 29.92 in
Visibility 10.0 miles
Clouds Scattered Clouds 7500 ft
Scattered Clouds 10000 ft
Heat Index 105 °F
Dew Point 76 °F
Humidity 60%
Rainfall 0.00 in
Snow Depth Not available.
UV 1.0 out of 12
Pollen 4.90 out of 12
Air Quality Not available.
Flu Activity Not available.
METAR KPEZ 312320Z AUTO 34005KT 10SM VCTS SCT075 SCT100 33/20 A2992 RMK AO2 LTG DSNT NE AND W T03300197

More Conditions Fewer Conditions

Pressure 29.92 in
Visibility 10.0 miles
Clouds Scattered Clouds 7500 ft
Scattered Clouds 10000 ft
Heat Index 105 °F
Dew Point 76 °F
Humidity 60%
Rainfall 0.00 in
Snow Depth Not available.
UV 1.0 out of 12
Pollen 4.90 out of 12
Air Quality Not available.
Flu Activity Not available.
METAR KPEZ 312320Z AUTO 34005KT 10SM VCTS SCT075 SCT100 33/20 A2992 RMK AO2 LTG DSNT NE AND W T03300197

More Conditions Fewer Conditions

Nowcast | as of 6:12 PM CDT on July 31, 2015

Isolated showers and thunderstorms will move slowly southwest across mainly western and southern portions of south central Texas through the evening hours. A few lightning strikes...brief heavy downpours...and wind gusts to 40 mph are possible. Most if not all the activity should dissipate by 9 PM.

×

10-Day Weather Forecast

×

Almanac

Astronomy

Jul. 31, 2015 Rise Set
Actual Time
Civil Twilight
Nautical Twilight
Astronomical Twilight
Moon
Length of Visible Light
Length of Day
Tomorrow will be .
, % of the Moon is Illuminated

Today's Extremes

State Highs State Lows

Community

WunderPhotos

Upload Photos

1,842,767 photos uploaded!

WunderBlogs® & News

Nearby

Air Quality

  Air Quality AQ Index Pollutant
Not available.

Snow Depth

Station Depth Elevation

Earthquake Activity

City Distance Mag. Time & Date
Minimum magnitude displayed is 2.5.

Coastal Water Temperatures

Place Temperature

Stations

Nearby Weather Stations

Station Location Temp. Windchill Dew Point Humidity Wind Precip. Elev Updated Type